createdAt,value
2018-12-03T00:00:23.304Z,99568.02
2018-12-03T00:02:57.845Z,99557.58
2018-12-03T00:05:26.609Z,99551.04
2018-12-03T00:07:55.032Z,99550.16
2018-12-03T00:10:23.432Z,99547.14
2018-12-03T00:12:51.881Z,99544.03
2018-12-03T00:15:20.315Z,99544.45
2018-12-03T00:17:48.736Z,99543.16
2018-12-03T00:20:17.234Z,99542.28
2018-12-03T00:22:45.682Z,99546.17
2018-12-03T00:25:14.165Z,99534.48
2018-12-03T00:27:51.566Z,99532.34
2018-12-03T00:30:20.281Z,99526.69
2018-12-03T00:32:48.795Z,99527.98
2018-12-03T00:35:17.215Z,99519.77
2018-12-03T00:37:45.633Z,99519.34
2018-12-03T00:40:14.020Z,99520.19
2018-12-03T00:42:48.988Z,99511.51
2018-12-03T00:45:17.441Z,99512.39
2018-12-03T00:47:45.847Z,99513.27
2018-12-03T00:50:14.550Z,99515.45
2018-12-03T00:52:42.981Z,99513.73
2018-12-03T00:55:11.615Z,99502.00
2018-12-03T00:57:40.074Z,99512.39
2018-12-03T01:00:10.508Z,99496.38
2018-12-03T01:02:38.915Z,99494.62
2018-12-03T01:05:08.488Z,99488.54
2018-12-03T01:07:37.286Z,99491.59
2018-12-03T01:10:07.741Z,99488.54
2018-12-03T01:12:36.321Z,99482.50
2018-12-03T01:15:06.652Z,99471.65
2018-12-03T01:17:35.063Z,99471.65
2018-12-03T01:20:03.937Z,99473.83
2018-12-03T01:22:32.452Z,99472.11
2018-12-03T01:25:00.844Z,99460.83
2018-12-03T01:27:29.282Z,99468.59
2018-12-03T01:29:57.700Z,99465.57
2018-12-03T01:32:26.283Z,99457.36
2018-12-03T01:34:54.909Z,99461.30
2018-12-03T01:37:23.380Z,99459.58
2018-12-03T01:39:51.793Z,99453.08
2018-12-03T01:42:20.909Z,99450.06
2018-12-03T01:44:49.368Z,99446.13
2018-12-03T01:47:17.756Z,99436.61
2018-12-03T01:49:47.423Z,99425.38
2018-12-03T01:52:15.849Z,99426.67
2018-12-03T01:54:44.360Z,99429.73
2018-12-03T01:57:13.141Z,99421.89
2018-12-03T01:59:41.550Z,99413.26
2018-12-03T02:02:10.061Z,99419.75
2018-12-03T02:04:38.630Z,99414.09
2018-12-03T02:07:07.067Z,99412.34
2018-12-03T02:09:36.464Z,99411.88
2018-12-03T02:12:04.973Z,99411.80
2018-12-03T02:14:33.381Z,99417.38
2018-12-03T02:17:01.756Z,99409.92
2018-12-03T02:19:30.191Z,99414.66
2018-12-03T02:21:58.593Z,99402.95
2018-12-03T02:24:26.977Z,99402.04
2018-12-03T02:26:55.404Z,99396.38
2018-12-03T02:29:23.906Z,99395.04
2018-12-03T02:31:52.986Z,99388.50
2018-12-03T02:34:21.412Z,99390.64
2018-12-03T02:36:50.273Z,99385.45
2018-12-03T02:39:18.672Z,99384.57
2018-12-03T02:41:47.212Z,99390.14
2018-12-03T02:44:15.628Z,99394.42
2018-12-03T02:46:44.145Z,99381.39
2018-12-03T02:49:12.576Z,99377.88
2018-12-03T02:51:40.958Z,99377.41
2018-12-03T02:54:09.373Z,99374.77
2018-12-03T02:56:37.878Z,99374.73
2018-12-03T02:59:06.677Z,99372.05
2018-12-03T03:01:35.105Z,99334.66
2018-12-03T03:04:03.531Z,99365.94
2018-12-03T03:06:31.926Z,99372.81
2018-12-03T03:09:00.673Z,99373.19
2018-12-03T03:11:29.385Z,99364.09
2018-12-03T03:13:57.792Z,99371.43
2018-12-03T03:16:26.285Z,99373.11
2018-12-03T03:18:54.714Z,99372.69
2018-12-03T03:21:23.119Z,99371.77
2018-12-03T03:23:51.502Z,99363.94
2018-12-03T03:26:19.935Z,99372.10
2018-12-03T03:28:48.771Z,99378.55
2018-12-03T03:31:17.146Z,99373.36
2018-12-03T03:33:45.681Z,99372.90
2018-12-03T03:36:14.113Z,99366.78
2018-12-03T03:38:43.111Z,99361.17
2018-12-03T03:41:11.534Z,99366.78
2018-12-03T03:43:39.912Z,99362.47
2018-12-03T03:46:08.311Z,99352.87
2018-12-03T03:48:36.740Z,99355.52
2018-12-03T03:51:05.308Z,99348.15
2018-12-03T03:53:33.679Z,99349.45
2018-12-03T03:56:02.136Z,99340.78
2018-12-03T03:58:30.537Z,99333.37
2018-12-03T04:00:59.273Z,99348.61
2018-12-03T04:03:27.930Z,99332.61
2018-12-03T04:05:56.322Z,99333.53
2018-12-03T04:08:24.751Z,99340.48
2018-12-03T04:10:53.169Z,99345.72
2018-12-03T04:13:21.549Z,99331.44
2018-12-03T04:15:49.956Z,99330.59
2018-12-03T04:18:18.389Z,99333.61
2018-12-03T04:20:46.766Z,99343.58
2018-12-03T04:23:15.172Z,99330.59
2018-12-03T04:25:43.608Z,99336.67
2018-12-03T04:28:12.009Z,99326.74
2018-12-03T04:30:40.648Z,99330.64
2018-12-03T04:33:12.201Z,99323.77
2018-12-03T04:35:40.641Z,99322.51
2018-12-03T04:38:09.161Z,99319.91
2018-12-03T04:40:38.095Z,99313.45
2018-12-03T04:43:06.523Z,99303.03
2018-12-03T04:45:34.994Z,99304.33
2018-12-03T04:48:03.560Z,99306.97
2018-12-03T04:50:31.987Z,99290.51
2018-12-03T04:53:00.423Z,99285.31
2018-12-03T04:55:28.833Z,99282.30
2018-12-03T04:57:57.227Z,99284.05
2018-12-03T05:00:25.686Z,99287.98
2018-12-03T05:02:54.293Z,99282.83
2018-12-03T05:05:22.781Z,99278.94
2018-12-03T05:07:51.212Z,99280.70
2018-12-03T05:10:21.069Z,99286.31
2018-12-03T05:12:50.630Z,99279.40
2018-12-03T05:15:19.086Z,99279.81
2018-12-03T05:17:47.582Z,99273.28
2018-12-03T05:20:18.416Z,99282.88
2018-12-03T05:22:46.819Z,99275.08
2018-12-03T05:25:19.218Z,99288.95
2018-12-03T05:27:43.715Z,99282.45
2018-12-03T05:30:13.996Z,99278.59
2018-12-03T05:32:43.122Z,99277.72
2018-12-03T05:35:12.893Z,99272.10
2018-12-03T05:37:41.736Z,99279.05
2018-12-03T05:40:13.714Z,99279.94
2018-12-03T05:42:42.224Z,99280.81
2018-12-03T05:45:10.972Z,99279.55
2018-12-03T05:47:39.443Z,99276.53
2018-12-03T05:50:13.329Z,99274.78
2018-12-03T05:52:41.833Z,99282.15
2018-12-03T05:55:11.565Z,99281.69
2018-12-03T05:57:39.998Z,99282.98
2018-12-03T06:00:13.905Z,99275.62
2018-12-03T06:02:42.340Z,99273.82
2018-12-03T06:05:12.085Z,99291.58
2018-12-03T06:07:40.521Z,99275.13
2018-12-03T06:10:11.252Z,99273.78
2018-12-03T06:12:39.732Z,99270.30
2018-12-03T06:15:09.937Z,99265.57
2018-12-03T06:17:38.793Z,99261.67
2018-12-03T06:20:09.836Z,99269.47
2018-12-03T06:22:38.296Z,99254.77
2018-12-03T06:25:09.416Z,99259.50
2018-12-03T06:27:37.958Z,99250.87
2018-12-03T06:30:13.400Z,99255.67
2018-12-03T06:32:42.012Z,99263.93
2018-12-03T06:35:12.205Z,99260.91
2018-12-03T06:37:40.717Z,99274.78
2018-12-03T06:40:13.460Z,99263.13
2018-12-03T06:42:41.931Z,99261.79
2018-12-03T06:45:13.013Z,99263.51
2018-12-03T06:47:44.037Z,99262.67
2018-12-03T06:50:12.613Z,99259.61
2018-12-03T06:52:41.037Z,99257.89
2018-12-03T06:55:10.731Z,99260.07
2018-12-03T06:57:39.233Z,99263.58
2018-12-03T07:00:14.317Z,99262.70
2018-12-03T07:02:43.058Z,99252.73
2018-12-03T07:05:12.843Z,99251.86
2018-12-03T07:07:42.461Z,99251.05
2018-12-03T07:10:12.585Z,99258.01
2018-12-03T07:12:41.038Z,99249.75
2018-12-03T07:15:10.901Z,99247.62
2018-12-03T07:17:39.476Z,99253.27
2018-12-03T07:20:11.289Z,99243.30
2018-12-03T07:22:40.117Z,99248.08
2018-12-03T07:25:09.964Z,99245.05
2018-12-03T07:27:38.525Z,99239.94
2018-12-03T07:30:24.898Z,99241.69
2018-12-03T07:32:53.938Z,99249.52
2018-12-03T07:35:23.297Z,99238.29
2018-12-03T07:37:54.070Z,99243.91
2018-12-03T07:40:22.485Z,99242.22
2018-12-03T07:42:50.896Z,99243.52
2018-12-03T07:45:20.409Z,99235.77
2018-12-03T07:47:48.899Z,99253.07
2018-12-03T07:50:18.407Z,99250.47
2018-12-03T07:52:47.056Z,99237.45
2018-12-03T07:55:18.536Z,99239.23
2018-12-03T07:57:59.201Z,99232.28
2018-12-03T08:00:31.289Z,99228.39
2018-12-03T08:02:59.742Z,99239.28
2018-12-03T08:05:28.476Z,99230.18
2018-12-03T08:07:56.920Z,99229.34
2018-12-03T08:10:25.448Z,99219.80
2018-12-03T08:12:54.223Z,99221.13
2018-12-03T08:15:23.089Z,99216.84
2018-12-03T08:17:54.570Z,99215.61
2018-12-03T08:20:29.237Z,99225.16
2018-12-03T08:23:01.826Z,99226.50
2018-12-03T08:25:30.506Z,99218.28
2018-12-03T08:27:58.910Z,99232.96
2018-12-03T08:30:27.366Z,99234.27
2018-12-03T08:32:55.741Z,99229.48
2018-12-03T08:35:24.192Z,99226.01
2018-12-03T08:37:52.742Z,99230.75
2018-12-03T08:40:21.233Z,99229.48
2018-12-03T08:42:52.056Z,99224.71
2018-12-03T08:45:22.011Z,99217.34
2018-12-03T08:47:51.037Z,99229.06
2018-12-03T08:50:21.531Z,99222.14
2018-12-03T08:52:50.053Z,99227.34
2018-12-03T08:55:18.467Z,99222.60
2018-12-03T08:57:46.920Z,99223.91
2018-12-03T09:00:20.838Z,99223.48
2018-12-03T09:03:26.923Z,99221.34
2018-12-03T09:05:56.307Z,99212.70
2018-12-03T09:08:27.027Z,99209.26
2018-12-03T09:10:55.509Z,99211.44
2018-12-03T09:13:24.601Z,99215.83
2018-12-03T09:15:58.536Z,99215.41
2018-12-03T09:18:36.869Z,99179.09
2018-12-03T09:21:13.740Z,99207.15
2018-12-03T09:23:44.238Z,99201.08
2018-12-03T09:26:13.199Z,99211.05
2018-12-03T09:28:41.727Z,99202.38
2018-12-03T09:31:10.765Z,99200.62
2018-12-03T09:33:39.178Z,99202.38
2018-12-03T09:36:07.616Z,99201.08
2018-12-03T09:38:47.449Z,99184.15
2018-12-03T09:41:15.883Z,99200.62
2018-12-03T09:43:44.334Z,99191.10
2018-12-03T09:46:13.033Z,99191.10
2018-12-03T09:48:41.494Z,99183.30
2018-12-03T09:51:09.905Z,99178.11
2018-12-03T09:53:38.336Z,99176.39
2018-12-03T09:56:07.625Z,99177.27
2018-12-03T09:58:36.024Z,99172.48
2018-12-03T10:01:04.555Z,99176.84
2018-12-03T10:03:38.864Z,99167.33
2018-12-03T10:06:10.728Z,99166.06
2018-12-03T10:08:39.146Z,99172.55
2018-12-03T10:11:08.064Z,99161.25
2018-12-03T10:13:36.468Z,99158.20
2018-12-03T10:16:05.040Z,99160.41
2018-12-03T10:18:33.448Z,99161.28
2018-12-03T10:21:02.400Z,99154.36
2018-12-03T10:23:30.901Z,99160.86
2018-12-03T10:26:00.649Z,99147.45
2018-12-03T10:28:29.476Z,99146.14
2018-12-03T10:30:58.771Z,99140.56
2018-12-03T10:33:31.772Z,99134.91
2018-12-03T10:36:01.966Z,99144.45
2018-12-03T10:38:33.043Z,99138.34
2018-12-03T10:41:11.121Z,99141.83
2018-12-03T10:43:40.221Z,99130.55
2018-12-03T10:46:09.975Z,99132.80
2018-12-03T10:48:38.787Z,99132.37
2018-12-03T10:51:13.736Z,99138.87
2018-12-03T10:53:42.262Z,99134.09
2018-12-03T10:56:10.725Z,99130.63
2018-12-03T10:58:42.323Z,99131.49
2018-12-03T11:01:16.077Z,99128.02
2018-12-03T11:03:49.909Z,99131.95
2018-12-03T11:06:20.618Z,99122.47
2018-12-03T11:08:49.075Z,99125.52
2018-12-03T11:11:17.588Z,99122.91
2018-12-03T11:13:46.114Z,99123.38
2018-12-03T11:16:37.041Z,99094.01
2018-12-03T11:19:06.845Z,99120.32
2018-12-03T11:21:35.397Z,99125.52
2018-12-03T11:24:04.200Z,99118.98
2018-12-03T11:26:35.942Z,99112.06
2018-12-03T11:29:05.270Z,99108.17
2018-12-03T11:31:34.625Z,99110.34
2018-12-03T11:34:36.863Z,99106.51
2018-12-03T11:37:08.520Z,99108.30
2018-12-03T11:39:57.713Z,99077.67
2018-12-03T11:42:30.007Z,99102.67
2018-12-03T11:44:58.517Z,99101.83
2018-12-03T11:47:26.910Z,99103.58
2018-12-03T11:49:55.633Z,99111.77
2018-12-03T11:52:24.541Z,99094.45
2018-12-03T11:54:52.910Z,99094.48
2018-12-03T11:57:21.423Z,99089.31
2018-12-03T11:59:49.996Z,99090.19
2018-12-03T12:02:18.481Z,99080.25
2018-12-03T12:04:46.860Z,99074.62
2018-12-03T12:07:15.473Z,99073.77
2018-12-03T12:09:43.870Z,99073.84
2018-12-03T12:12:12.384Z,99079.03
2018-12-03T12:14:40.805Z,99072.08
2018-12-03T12:17:09.185Z,99064.25
2018-12-03T12:19:37.771Z,99059.51
2018-12-03T12:22:06.814Z,99053.88
2018-12-03T12:24:36.415Z,99050.02
2018-12-03T12:27:05.680Z,99053.94
2018-12-03T12:29:34.095Z,99052.25
2018-12-03T12:32:02.508Z,99053.12
2018-12-03T12:34:30.921Z,99051.00
2018-12-03T12:36:59.347Z,99058.84
2018-12-03T12:39:28.025Z,99053.19
2018-12-03T12:41:56.414Z,99059.28
2018-12-03T12:44:24.830Z,99058.86
2018-12-03T12:46:53.618Z,99075.34
2018-12-03T12:49:21.991Z,99070.98
2018-12-03T12:51:51.667Z,99062.77
2018-12-03T12:54:20.396Z,99066.66
2018-12-03T12:56:48.776Z,99067.96
2018-12-03T12:59:17.557Z,99063.22
2018-12-03T13:01:46.012Z,99056.72
2018-12-03T13:04:14.453Z,99057.11
2018-12-03T13:06:42.874Z,99060.16
2018-12-03T13:09:11.631Z,99058.44
2018-12-03T13:11:40.984Z,99055.81
2018-12-03T13:14:11.572Z,99065.78
2018-12-03T13:16:40.182Z,99074.83
2018-12-03T13:19:09.425Z,99058.75
2018-12-03T13:21:38.814Z,99060.47
2018-12-03T13:24:07.641Z,99057.00
2018-12-03T13:26:38.693Z,99046.56
2018-12-03T13:29:07.616Z,99043.97
2018-12-03T13:31:36.715Z,99044.42
2018-12-03T13:34:06.344Z,99040.94
2018-12-03T13:36:34.881Z,99034.45
2018-12-03T13:39:05.661Z,99034.87
2018-12-03T13:41:34.144Z,99039.25
2018-12-03T13:44:02.857Z,99042.70
2018-12-03T13:46:31.249Z,99037.95
2018-12-03T13:48:59.814Z,99029.30
2018-12-03T13:51:28.235Z,99033.66
2018-12-03T13:53:56.753Z,99028.45
2018-12-03T13:56:25.180Z,99023.31
2018-12-03T13:58:53.654Z,99030.20
2018-12-03T14:01:24.742Z,99029.81
2018-12-03T14:03:57.283Z,99032.47
2018-12-03T14:06:38.679Z,99031.56
2018-12-03T14:09:19.759Z,99039.36
2018-12-03T14:11:57.553Z,99025.43
2018-12-03T14:14:45.575Z,99023.70
2018-12-03T14:17:21.810Z,99033.66
2018-12-03T14:19:54.145Z,99015.00
2018-12-03T14:22:26.774Z,99009.38
2018-12-03T14:24:55.188Z,99008.95
2018-12-03T14:27:23.562Z,99010.28
2018-12-03T14:29:52.154Z,99003.36
2018-12-03T14:32:20.598Z,99006.41
2018-12-03T14:34:49.108Z,98995.59
2018-12-03T14:37:17.560Z,98988.66
2018-12-03T14:39:46.055Z,99000.41
2018-12-03T14:42:14.453Z,98999.11
2018-12-03T14:44:42.932Z,98986.56
2018-12-03T14:47:11.310Z,98995.69
2018-12-03T14:49:39.697Z,98996.14
2018-12-03T14:52:08.246Z,99003.13
2018-12-03T14:54:36.993Z,98995.37
2018-12-03T14:57:05.404Z,99003.17
2018-12-03T14:59:33.849Z,99001.00
2018-12-03T15:02:02.352Z,98996.67
2018-12-03T15:04:30.744Z,98999.73
2018-12-03T15:06:59.176Z,99002.78
2018-12-03T15:09:27.881Z,98994.58
2018-12-03T15:11:56.265Z,98994.58
2018-12-03T15:14:24.668Z,99005.47
2018-12-03T15:16:53.117Z,99006.80
2018-12-03T15:19:21.513Z,99004.64
2018-12-03T15:21:49.973Z,99001.19
2018-12-03T15:24:18.424Z,99003.81
2018-12-03T15:26:46.853Z,98980.54
2018-12-03T15:29:15.379Z,99003.42
2018-12-03T15:31:43.818Z,98999.09
2018-12-03T15:34:12.264Z,98999.12
2018-12-03T15:36:40.779Z,98991.77
2018-12-03T15:39:10.161Z,98997.89
2018-12-03T15:41:38.959Z,98993.99
2018-12-03T15:44:07.417Z,98994.89
2018-12-03T15:46:35.812Z,98993.64
2018-12-03T15:49:04.349Z,98988.44
2018-12-03T15:51:32.769Z,98988.89
2018-12-03T15:54:01.265Z,98991.09
2018-12-03T15:56:30.200Z,98988.48
2018-12-03T15:58:58.617Z,98988.06
2018-12-03T16:01:27.001Z,98976.80
2018-12-03T16:03:55.422Z,98970.33
2018-12-03T16:06:24.006Z,98978.58
2018-12-03T16:08:52.399Z,98982.05
2018-12-03T16:11:20.901Z,98967.75
2018-12-03T16:13:49.347Z,98958.21
2018-12-03T16:16:17.726Z,98965.59
2018-12-03T16:18:46.102Z,98963.89
2018-12-03T16:21:14.652Z,98973.45
2018-12-03T16:23:43.896Z,98972.17
2018-12-03T16:26:12.279Z,98963.52
2018-12-03T16:28:40.813Z,98960.05
2018-12-03T16:31:09.397Z,98952.30
2018-12-03T16:33:37.792Z,98954.92
2018-12-03T16:36:06.223Z,98951.89
2018-12-03T16:38:34.645Z,98947.11
2018-12-03T16:41:03.134Z,98944.11
2018-12-03T16:43:31.699Z,98947.59
2018-12-03T16:46:00.360Z,98949.34
2018-12-03T16:48:28.789Z,98944.16
2018-12-03T16:50:57.307Z,98939.39
2018-12-03T16:53:25.758Z,98939.39
2018-12-03T16:55:54.267Z,98911.87
2018-12-03T16:58:22.802Z,98946.33
2018-12-03T17:00:51.203Z,98935.47
2018-12-03T17:03:19.613Z,98927.23
2018-12-03T17:05:48.032Z,98932.89
2018-12-03T17:08:16.409Z,98926.37
2018-12-03T17:10:44.908Z,98929.88
2018-12-03T17:13:13.790Z,98812.75
2018-12-03T17:15:42.160Z,98918.62
2018-12-03T17:18:10.559Z,98916.89
2018-12-03T17:20:44.519Z,98918.19
2018-12-03T17:24:20.204Z,98920.36
2018-12-03T17:26:55.298Z,98914.28
2018-12-03T17:29:23.701Z,98910.36
2018-12-03T17:31:52.176Z,98913.84
2018-12-03T17:34:20.605Z,98922.52
2018-12-03T17:36:48.991Z,98914.71
2018-12-03T17:39:17.431Z,98723.23
2018-12-03T17:41:45.953Z,98914.27
2018-12-03T17:44:14.356Z,98914.71
2018-12-03T17:46:42.761Z,98915.14
2018-12-03T17:49:11.714Z,98910.77
2018-12-03T17:51:40.132Z,98908.16
2018-12-03T17:54:08.539Z,98906.86
2018-12-03T17:56:37.061Z,98911.19
2018-12-03T17:59:05.545Z,98909.47
2018-12-03T18:01:33.956Z,98907.31
2018-12-03T18:04:02.492Z,98896.02
2018-12-03T18:06:30.897Z,98896.90
2018-12-03T18:08:59.421Z,98889.98
2018-12-03T18:11:27.837Z,98889.56
2018-12-03T18:13:56.811Z,98891.73
2018-12-03T18:16:25.195Z,98883.50
2018-12-03T18:18:53.597Z,98882.22
2018-12-03T18:21:21.968Z,98881.80
2018-12-03T18:23:50.354Z,98879.20
2018-12-03T18:26:18.906Z,98869.67
2018-12-03T18:28:47.328Z,98882.26
2018-12-03T18:31:15.793Z,98885.75
2018-12-03T18:33:44.249Z,98881.00
2018-12-03T18:36:12.657Z,98884.49
2018-12-03T18:38:41.033Z,98882.78
2018-12-03T18:41:09.453Z,98885.86
2018-12-03T18:43:37.855Z,98878.06
2018-12-03T18:46:06.224Z,98884.14
2018-12-03T18:48:34.965Z,98873.30
2018-12-03T18:51:03.461Z,98868.55
2018-12-03T18:53:32.167Z,98869.42
2018-12-03T18:56:00.740Z,98864.21
2018-12-03T18:58:54.717Z,98858.13
2018-12-03T19:01:24.214Z,98852.50
2018-12-03T19:03:52.701Z,98849.89
2018-12-03T19:06:21.377Z,98849.47
2018-12-03T19:08:49.805Z,98843.40
2018-12-03T19:11:18.248Z,98843.84
2018-12-03T19:13:46.650Z,98853.41
2018-12-03T19:16:15.198Z,98751.20
2018-12-03T19:18:43.652Z,98844.76
2018-12-03T19:21:12.123Z,98843.47
2018-12-03T19:23:40.557Z,98836.53
2018-12-03T19:26:09.193Z,98835.70
2018-12-03T19:28:37.599Z,98836.14
2018-12-03T19:31:06.356Z,98826.16
2018-12-03T19:33:34.925Z,98830.09
2018-12-03T19:36:03.402Z,98821.00
2018-12-03T19:38:31.870Z,98830.54
2018-12-03T19:41:00.345Z,98833.16
2018-12-03T19:43:28.756Z,98831.43
2018-12-03T19:45:57.329Z,98834.92
2018-12-03T19:48:25.796Z,98837.55
2018-12-03T19:50:54.246Z,98839.72
2018-12-03T19:53:22.835Z,98842.34
2018-12-03T19:55:51.978Z,98844.52
2018-12-03T19:58:24.798Z,98844.97
2018-12-03T20:00:53.223Z,98834.55
2018-12-03T20:03:21.777Z,98838.91
2018-12-03T20:05:50.239Z,98839.79
2018-12-03T20:08:18.664Z,98840.23
2018-12-03T20:10:47.177Z,98837.65
2018-12-03T20:13:15.635Z,98844.17
2018-12-03T20:15:44.069Z,98840.70
2018-12-03T20:18:12.651Z,98846.37
2018-12-03T20:20:46.446Z,98839.42
2018-12-03T20:23:25.842Z,98840.73
2018-12-03T20:26:28.681Z,98839.02
2018-12-03T20:29:33.376Z,98836.85
2018-12-03T20:33:10.239Z,98843.37
2018-12-03T20:36:06.908Z,98846.43
2018-12-03T20:38:43.593Z,98850.36
2018-12-03T20:41:31.367Z,98845.16
2018-12-03T20:44:06.790Z,98849.95
2018-12-03T20:47:11.074Z,98842.60
2018-12-03T20:49:59.761Z,98841.74
2018-12-03T20:52:30.017Z,98835.27
2018-12-03T20:55:03.185Z,98829.63
2018-12-03T20:57:37.801Z,98830.51
2018-12-03T21:00:06.897Z,98835.73
2018-12-03T21:02:35.445Z,98828.80
2018-12-03T21:05:04.613Z,98832.73
2018-12-03T21:07:33.101Z,98827.53
2018-12-03T21:10:01.911Z,98826.23
2018-12-03T21:12:30.315Z,98828.83
2018-12-03T21:14:58.764Z,98825.37
2018-12-03T21:17:27.430Z,98820.59
2018-12-03T21:20:01.145Z,98829.73
2018-12-03T21:22:29.612Z,98827.13
2018-12-03T21:24:58.057Z,98818.88
2018-12-03T21:27:26.461Z,98818.02
2018-12-03T21:29:54.883Z,98820.20
2018-12-03T21:32:23.492Z,98817.61
2018-12-03T21:34:51.929Z,98815.43
2018-12-03T21:37:20.352Z,98818.05
2018-12-03T21:39:48.749Z,98816.73
2018-12-03T21:42:17.180Z,98811.09
2018-12-03T21:44:45.575Z,98801.09
2018-12-03T21:47:13.996Z,98798.48
2018-12-03T21:49:42.437Z,98803.72
2018-12-03T21:52:10.822Z,98802.84
2018-12-03T21:54:39.192Z,98804.58
2018-12-03T21:57:10.782Z,98801.11
2018-12-03T21:59:38.543Z,98807.64
2018-12-03T22:02:07.031Z,98813.72
2018-12-03T22:04:35.504Z,98801.12
2018-12-03T22:07:04.145Z,98808.08
2018-12-03T22:09:32.539Z,98816.77
2018-12-03T22:12:00.968Z,98815.91
2018-12-03T22:14:29.349Z,98818.10
2018-12-03T22:16:57.729Z,98814.64
2018-12-03T22:19:26.121Z,98809.86
2018-12-03T22:21:54.941Z,98812.48
2018-12-03T22:24:23.362Z,98811.59
2018-12-03T22:26:51.948Z,98809.44
2018-12-03T22:29:20.612Z,98778.89
2018-12-03T22:31:49.001Z,98815.10
2018-12-03T22:34:22.884Z,98811.19
2018-12-03T22:36:47.973Z,98805.95
2018-12-03T22:39:16.365Z,98805.52
2018-12-03T22:41:44.873Z,98814.66
2018-12-03T22:44:13.272Z,98804.22
2018-12-03T22:46:41.681Z,98806.81
2018-12-03T22:49:10.119Z,98805.52
2018-12-03T22:51:38.555Z,98808.55
2018-12-03T22:54:06.951Z,98815.94
2018-12-03T22:56:35.376Z,98813.33
2018-12-03T22:59:03.869Z,98816.81
2018-12-03T23:01:32.524Z,98818.97
2018-12-03T23:04:01.036Z,98820.70
2018-12-03T23:06:29.412Z,98822.88
2018-12-03T23:08:58.224Z,98818.50
2018-12-03T23:11:26.640Z,98816.76
2018-12-03T23:13:55.168Z,98817.63
2018-12-03T23:16:23.539Z,98815.03
2018-12-03T23:18:51.941Z,98813.30
2018-12-03T23:21:20.385Z,98815.04
2018-12-03T23:23:49.011Z,98808.95
2018-12-03T23:26:17.467Z,98803.30
2018-12-03T23:28:45.839Z,98802.00
2018-12-03T23:31:14.646Z,98675.43
2018-12-03T23:33:43.082Z,98801.14
2018-12-03T23:36:11.465Z,98801.59
2018-12-03T23:38:39.913Z,98799.86
2018-12-03T23:41:08.325Z,98802.89
2018-12-03T23:43:36.713Z,98797.69
2018-12-03T23:46:05.217Z,98796.39
2018-12-03T23:48:33.779Z,98796.41
2018-12-03T23:51:02.597Z,98801.19
2018-12-03T23:53:30.998Z,98802.91
2018-12-03T23:55:59.473Z,98805.97
2018-12-03T23:58:27.845Z,98808.14
